createdAt,value
2023-03-07T00:01:00.800Z,55.00
2023-03-07T00:03:27.510Z,48.17
2023-03-07T00:06:04.996Z,44.17
2023-03-07T00:08:31.975Z,49.78
2023-03-07T00:11:06.791Z,50.25
2023-03-07T00:13:35.161Z,47.38
2023-03-07T00:16:08.226Z,45.03
2023-03-07T00:18:35.273Z,51.28
2023-03-07T00:21:07.367Z,53.85
2023-03-07T00:23:35.287Z,47.00
2023-03-07T00:26:05.064Z,52.42
2023-03-07T00:28:31.643Z,47.72
2023-03-07T00:31:07.205Z,38.42
2023-03-07T00:33:34.406Z,45.72
2023-03-07T00:36:11.123Z,48.17
2023-03-07T00:38:37.697Z,44.03
2023-03-07T00:41:12.070Z,41.25
2023-03-07T00:43:39.082Z,38.70
2023-03-07T00:46:05.852Z,41.72
2023-03-07T00:48:37.538Z,41.17
2023-03-07T00:51:05.755Z,44.85
2023-03-07T00:53:32.316Z,47.08
2023-03-07T00:56:13.335Z,37.08
2023-03-07T00:58:40.035Z,49.78
2023-03-07T01:01:09.694Z,42.92
2023-03-07T01:03:36.763Z,45.30
2023-03-07T01:06:09.727Z,41.15
2023-03-07T01:08:36.169Z,47.28
2023-03-07T01:11:05.098Z,36.35
2023-03-07T01:13:33.095Z,46.85
2023-03-07T01:16:15.122Z,40.30
2023-03-07T01:18:42.461Z,43.70
2023-03-07T01:21:14.476Z,50.83
2023-03-07T01:23:41.121Z,43.42
2023-03-07T01:26:07.568Z,49.33
2023-03-07T01:28:33.986Z,54.15
2023-03-07T01:31:00.970Z,46.35
2023-03-07T01:33:27.443Z,48.15
2023-03-07T01:35:53.951Z,47.38
2023-03-07T01:38:20.500Z,45.58
2023-03-07T01:40:47.022Z,56.85
2023-03-07T01:43:32.456Z,45.78
2023-03-07T01:46:30.097Z,44.08
2023-03-07T01:49:01.082Z,49.08
2023-03-07T01:51:28.967Z,49.17
2023-03-07T01:53:57.298Z,38.05
2023-03-07T01:56:23.832Z,44.85
2023-03-07T01:58:51.572Z,40.58
2023-03-07T02:01:18.228Z,47.65
2023-03-07T02:03:55.233Z,50.20
2023-03-07T02:06:23.185Z,41.25
2023-03-07T02:08:51.111Z,45.78
2023-03-07T02:11:17.944Z,46.20
2023-03-07T02:13:44.599Z,44.17
2023-03-07T02:16:11.679Z,43.08
2023-03-07T02:18:47.891Z,40.28
2023-03-07T02:21:23.289Z,33.92
2023-03-07T02:24:21.424Z,42.53
2023-03-07T02:26:51.098Z,35.78
2023-03-07T02:29:17.659Z,37.22
2023-03-07T02:31:44.754Z,36.83
2023-03-07T02:34:21.720Z,42.78
2023-03-07T02:36:52.200Z,44.25
2023-03-07T02:39:21.578Z,46.92
2023-03-07T02:41:49.693Z,42.47
2023-03-07T02:44:16.122Z,45.45
2023-03-07T02:46:42.568Z,37.45
2023-03-07T02:49:08.977Z,44.05
2023-03-07T02:51:35.445Z,38.50
2023-03-07T02:54:01.942Z,39.83
2023-03-07T02:56:28.440Z,39.17
2023-03-07T02:58:54.865Z,41.60
2023-03-07T03:01:21.381Z,42.40
2023-03-07T03:03:47.974Z,44.35
2023-03-07T03:06:14.724Z,42.97
2023-03-07T03:08:41.168Z,36.92
2023-03-07T03:11:07.654Z,46.08
2023-03-07T03:13:34.191Z,48.08
2023-03-07T03:16:00.728Z,40.20
2023-03-07T03:18:31.253Z,43.20
2023-03-07T03:20:57.694Z,41.63
2023-03-07T03:23:27.544Z,40.75
2023-03-07T03:26:02.165Z,43.30
2023-03-07T03:28:29.172Z,41.35
2023-03-07T03:31:00.671Z,39.67
2023-03-07T03:36:00.387Z,38.17
2023-03-07T03:38:27.307Z,43.72
2023-03-07T03:40:54.841Z,42.70
2023-03-07T03:43:21.357Z,48.05
2023-03-07T03:45:55.411Z,43.63
2023-03-07T03:48:22.536Z,42.08
2023-03-07T03:50:48.943Z,40.80
2023-03-07T03:53:15.439Z,45.97
2023-03-07T03:55:41.892Z,42.15
2023-03-07T03:58:08.342Z,39.63
2023-03-07T04:00:34.749Z,37.45
2023-03-07T04:03:01.263Z,36.45
2023-03-07T04:05:27.791Z,37.05
2023-03-07T04:07:54.191Z,37.78
2023-03-07T04:10:20.714Z,39.10
2023-03-07T04:12:47.104Z,42.15
2023-03-07T04:15:13.551Z,40.63
2023-03-07T04:17:39.958Z,39.30
2023-03-07T04:20:11.006Z,40.35
2023-03-07T04:22:37.451Z,41.97
2023-03-07T04:25:04.107Z,43.65
2023-03-07T04:27:30.722Z,50.10
2023-03-07T04:29:57.209Z,50.92
2023-03-07T04:32:23.774Z,41.53
2023-03-07T04:34:50.218Z,37.45
2023-03-07T04:37:16.617Z,40.95
2023-03-07T04:39:43.123Z,43.03
2023-03-07T04:42:09.628Z,44.83
2023-03-07T04:44:36.103Z,42.10
2023-03-07T04:47:02.727Z,37.83
2023-03-07T04:49:29.171Z,45.00
2023-03-07T04:51:55.644Z,39.15
2023-03-07T04:54:22.104Z,41.97
2023-03-07T04:56:48.622Z,36.92
2023-03-07T04:59:15.022Z,49.53
2023-03-07T05:01:41.552Z,52.28
2023-03-07T05:04:08.112Z,81.85
2023-03-07T05:06:34.557Z,79.45
2023-03-07T05:09:00.982Z,70.75
2023-03-07T05:11:27.435Z,62.60
2023-03-07T05:13:53.920Z,53.83
2023-03-07T05:16:20.452Z,60.83
2023-03-07T05:18:46.926Z,52.47
2023-03-07T05:21:13.447Z,54.97
2023-03-07T05:23:40.005Z,50.33
2023-03-07T05:26:06.575Z,39.53
2023-03-07T05:28:34.048Z,42.17
2023-03-07T05:31:00.563Z,48.67
2023-03-07T05:33:27.079Z,48.92
2023-03-07T05:35:55.582Z,43.53
2023-03-07T05:38:22.043Z,47.85
2023-03-07T05:40:48.617Z,58.58
2023-03-07T05:43:15.039Z,50.72
2023-03-07T05:45:41.504Z,60.10
2023-03-07T05:48:08.002Z,47.75
2023-03-07T05:50:34.664Z,52.75
2023-03-07T05:53:01.146Z,49.83
2023-03-07T05:55:27.664Z,47.22
2023-03-07T05:57:54.122Z,44.92
2023-03-07T06:00:21.206Z,46.65
2023-03-07T06:02:47.795Z,42.67
2023-03-07T06:05:14.387Z,39.60
2023-03-07T06:07:40.841Z,43.88
2023-03-07T06:10:07.880Z,45.42
2023-03-07T06:12:34.370Z,53.88
2023-03-07T06:15:00.803Z,43.28
2023-03-07T06:17:27.260Z,44.45
2023-03-07T06:19:53.714Z,42.42
2023-03-07T06:22:20.224Z,43.55
2023-03-07T06:24:46.722Z,49.25
2023-03-07T06:27:13.266Z,52.13
2023-03-07T06:29:39.706Z,48.40
2023-03-07T06:32:06.497Z,41.88
2023-03-07T06:34:33.935Z,40.60
2023-03-07T06:37:03.911Z,44.58
2023-03-07T06:39:31.487Z,42.60
2023-03-07T06:41:58.044Z,44.45
2023-03-07T06:44:25.190Z,41.15
2023-03-07T06:46:51.708Z,43.60
2023-03-07T06:49:18.203Z,38.83
2023-03-07T06:51:45.201Z,48.78
2023-03-07T06:54:12.204Z,45.28
2023-03-07T06:56:38.969Z,44.17
2023-03-07T06:59:08.767Z,48.75
2023-03-07T07:01:35.974Z,42.75
2023-03-07T07:04:04.084Z,41.67
2023-03-07T07:06:30.698Z,51.38
2023-03-07T07:09:01.194Z,47.10
2023-03-07T07:11:28.932Z,60.78
2023-03-07T07:13:56.157Z,42.75
2023-03-07T07:16:25.000Z,46.70
2023-03-07T07:18:52.273Z,50.72
2023-03-07T07:21:19.830Z,49.22
2023-03-07T07:23:46.600Z,58.40
2023-03-07T07:26:13.073Z,51.53
2023-03-07T07:28:39.533Z,50.08
2023-03-07T07:31:06.170Z,52.03
2023-03-07T07:33:32.782Z,45.92
2023-03-07T07:35:59.354Z,66.13
2023-03-07T07:38:25.838Z,40.65
2023-03-07T07:40:52.378Z,44.33
2023-03-07T07:43:18.937Z,43.10
2023-03-07T07:45:45.630Z,43.20
2023-03-07T07:48:12.154Z,42.58
2023-03-07T07:50:38.663Z,39.72
2023-03-07T07:53:05.157Z,35.10
2023-03-07T07:55:31.684Z,42.25
2023-03-07T07:57:58.352Z,48.10
2023-03-07T08:00:25.182Z,47.10
2023-03-07T08:02:51.764Z,47.65
2023-03-07T08:05:19.943Z,36.70
2023-03-07T08:07:47.228Z,34.13
2023-03-07T08:10:16.035Z,40.38
2023-03-07T08:12:50.839Z,42.92
2023-03-07T08:15:18.259Z,42.50
2023-03-07T08:17:44.988Z,48.88
2023-03-07T08:20:11.850Z,53.88
2023-03-07T08:22:39.130Z,48.17
2023-03-07T08:25:10.239Z,44.88
2023-03-07T08:27:36.688Z,48.80
2023-03-07T08:30:03.893Z,44.47
2023-03-07T08:32:30.373Z,49.88
2023-03-07T08:34:56.983Z,52.10
2023-03-07T08:37:23.492Z,41.72
2023-03-07T08:39:49.933Z,42.55
2023-03-07T08:42:16.510Z,43.75
2023-03-07T08:44:43.025Z,45.97
2023-03-07T08:47:11.372Z,41.60
2023-03-07T08:49:38.110Z,37.80
2023-03-07T08:52:04.879Z,37.28
2023-03-07T08:54:32.417Z,43.47
2023-03-07T08:57:00.236Z,37.65
2023-03-07T08:59:26.917Z,74.75
2023-03-07T09:01:53.559Z,38.95
2023-03-07T09:04:20.194Z,42.67
2023-03-07T09:06:46.724Z,48.00
2023-03-07T09:09:13.277Z,39.22
2023-03-07T09:11:39.998Z,42.13
2023-03-07T09:14:06.862Z,38.55
2023-03-07T09:16:33.417Z,49.10
2023-03-07T09:19:00.155Z,49.80
2023-03-07T09:21:26.670Z,44.63
2023-03-07T09:23:53.209Z,35.92
2023-03-07T09:26:19.709Z,35.15
2023-03-07T09:28:46.489Z,30.35
2023-03-07T09:31:14.587Z,30.15
2023-03-07T09:33:41.974Z,28.80
2023-03-07T09:36:11.268Z,28.80
2023-03-07T09:38:38.901Z,35.08
2023-03-07T09:41:40.877Z,34.00
2023-03-07T09:44:10.445Z,31.38
2023-03-07T09:46:57.762Z,30.13
2023-03-07T09:49:40.075Z,25.00
2023-03-07T09:52:12.954Z,30.63
2023-03-07T09:54:44.418Z,21.15
2023-03-07T09:57:55.374Z,20.60
2023-03-07T10:00:29.673Z,21.13
2023-03-07T10:03:21.444Z,22.95
2023-03-07T10:05:49.678Z,22.65
2023-03-07T10:08:28.563Z,21.52
2023-03-07T10:11:13.573Z,23.50
2023-03-07T10:14:21.114Z,23.00
2023-03-07T10:17:05.697Z,23.42
2023-03-07T10:20:24.723Z,17.27
2023-03-07T10:23:09.369Z,28.90
2023-03-07T10:25:58.153Z,21.15
2023-03-07T10:28:31.764Z,20.02
2023-03-07T10:31:13.075Z,24.50
2023-03-07T10:33:42.793Z,21.50
2023-03-07T10:36:32.698Z,20.98
2023-03-07T10:39:25.038Z,19.50
2023-03-07T10:41:52.718Z,20.17
2023-03-07T10:44:21.796Z,21.17
2023-03-07T10:46:56.519Z,23.05
2023-03-07T10:49:28.058Z,20.08
2023-03-07T10:52:03.132Z,20.67
2023-03-07T10:54:33.125Z,19.30
2023-03-07T10:57:02.523Z,19.60
2023-03-07T10:59:28.929Z,35.00
2023-03-07T11:01:58.075Z,18.92
2023-03-07T11:04:27.381Z,22.65
2023-03-07T11:06:58.880Z,16.27
2023-03-07T11:09:36.247Z,20.70
2023-03-07T11:12:05.920Z,19.77
2023-03-07T11:14:47.702Z,21.08
2023-03-07T11:17:44.846Z,21.52
2023-03-07T11:20:25.021Z,19.85
2023-03-07T11:23:19.090Z,21.58
2023-03-07T11:25:45.597Z,20.65
2023-03-07T11:28:24.002Z,19.40
2023-03-07T11:30:53.654Z,15.52
2023-03-07T11:33:58.634Z,18.38
2023-03-07T11:36:28.832Z,17.80
2023-03-07T11:39:00.450Z,14.88
2023-03-07T11:41:37.472Z,17.48
2023-03-07T11:44:18.857Z,19.25
2023-03-07T11:50:05.508Z,18.58
2023-03-07T11:52:46.868Z,17.08
2023-03-07T11:58:22.451Z,18.90
2023-03-07T12:00:54.881Z,19.40
2023-03-07T12:03:48.646Z,16.50
2023-03-07T12:06:52.739Z,15.13
2023-03-07T12:09:31.194Z,15.88
2023-03-07T12:12:34.644Z,19.98
2023-03-07T12:15:38.070Z,20.90
2023-03-07T12:18:50.958Z,14.68
2023-03-07T12:21:17.336Z,13.18
2023-03-07T12:23:58.337Z,18.60
2023-03-07T12:27:19.040Z,17.73
2023-03-07T12:29:54.502Z,15.68
2023-03-07T12:32:25.858Z,19.83
2023-03-07T12:35:14.338Z,15.95
2023-03-07T12:37:47.634Z,18.25
2023-03-07T12:59:12.915Z,19.33
2023-03-07T13:01:47.044Z,19.38
2023-03-07T13:04:16.614Z,19.48
2023-03-07T13:06:45.277Z,19.05
2023-03-07T13:09:33.427Z,18.35
2023-03-07T13:12:22.983Z,19.42
2023-03-07T13:15:01.094Z,14.90
2023-03-07T13:17:30.961Z,17.25
2023-03-07T13:20:34.771Z,19.98
2023-03-07T13:23:21.160Z,22.75
2023-03-07T13:25:58.018Z,21.25
2023-03-07T13:28:33.392Z,20.38
2023-03-07T13:31:27.131Z,18.40
2023-03-07T13:33:54.114Z,18.73
2023-03-07T13:36:38.752Z,18.13
2023-03-07T13:39:37.652Z,20.45
2023-03-07T13:42:04.235Z,19.33
2023-03-07T13:44:39.909Z,18.95
2023-03-07T13:47:41.292Z,14.88
2023-03-07T13:50:49.337Z,18.75
2023-03-07T13:53:20.164Z,17.20
2023-03-07T13:56:02.236Z,21.35
2023-03-07T13:58:39.848Z,16.50
2023-03-07T14:01:14.858Z,15.88
2023-03-07T14:03:51.226Z,23.42
2023-03-07T14:06:33.086Z,39.15
2023-03-07T14:09:02.571Z,23.42
2023-03-07T14:11:38.120Z,20.23
2023-03-07T14:14:15.743Z,16.75
2023-03-07T14:16:50.745Z,22.88
2023-03-07T14:19:57.162Z,20.75
2023-03-07T14:22:41.961Z,19.67
2023-03-07T14:25:14.821Z,23.23
2023-03-07T14:28:02.336Z,26.88
2023-03-07T14:30:33.780Z,20.05
2023-03-07T14:33:01.339Z,19.38
2023-03-07T14:35:38.527Z,16.92
2023-03-07T14:38:16.619Z,21.50
2023-03-07T14:40:49.559Z,19.90
2023-03-07T14:43:32.942Z,15.75
2023-03-07T14:46:05.466Z,16.60
2023-03-07T14:48:54.902Z,17.63
2023-03-07T14:51:25.450Z,19.45
2023-03-07T14:53:52.410Z,17.25
2023-03-07T14:56:23.752Z,23.15
2023-03-07T14:58:57.871Z,139.82
2023-03-07T15:01:31.851Z,97.68
2023-03-07T15:03:58.966Z,78.55
2023-03-07T15:06:27.380Z,23.13
2023-03-07T15:08:57.037Z,58.30
2023-03-07T15:11:37.009Z,25.15
2023-03-07T15:14:22.051Z,17.92
2023-03-07T15:16:51.345Z,22.33
2023-03-07T15:19:32.949Z,16.58
2023-03-07T15:22:03.382Z,21.48
2023-03-07T15:24:38.467Z,23.83
2023-03-07T15:27:10.485Z,19.75
2023-03-07T15:29:39.312Z,17.45
2023-03-07T15:32:07.395Z,23.33
2023-03-07T15:34:40.110Z,24.15
2023-03-07T15:37:33.893Z,18.77
2023-03-07T15:40:08.408Z,21.23
2023-03-07T15:42:52.452Z,14.70
2023-03-07T15:45:28.254Z,19.33
2023-03-07T15:47:55.347Z,18.35
2023-03-07T15:50:24.929Z,16.05
2023-03-07T15:52:53.555Z,21.58
2023-03-07T15:55:24.270Z,19.48
2023-03-07T15:57:55.142Z,18.02
2023-03-07T16:00:34.910Z,16.45
2023-03-07T16:03:21.039Z,22.38
2023-03-07T16:05:47.583Z,20.00
2023-03-07T16:08:16.874Z,18.55
2023-03-07T16:10:58.725Z,22.20
2023-03-07T16:13:30.119Z,25.00
2023-03-07T16:16:07.115Z,19.27
2023-03-07T16:18:34.947Z,24.00
2023-03-07T16:21:01.609Z,21.73
2023-03-07T16:23:31.203Z,24.05
2023-03-07T16:25:59.494Z,21.25
2023-03-07T16:28:26.375Z,23.40
2023-03-07T16:30:53.092Z,23.10
2023-03-07T16:33:19.744Z,17.25
2023-03-07T16:35:46.286Z,26.90
2023-03-07T16:38:13.131Z,23.10
2023-03-07T16:40:42.142Z,34.95
2023-03-07T16:43:31.103Z,24.58
2023-03-07T16:45:57.744Z,24.85
2023-03-07T16:48:24.491Z,28.88
2023-03-07T16:50:51.097Z,25.40
2023-03-07T16:53:17.702Z,21.30
2023-03-07T16:55:44.232Z,38.50
2023-03-07T16:58:30.491Z,31.13
2023-03-07T17:00:58.977Z,28.52
2023-03-07T17:03:26.652Z,25.20
2023-03-07T17:05:53.142Z,27.83
2023-03-07T17:08:19.654Z,24.73
2023-03-07T17:10:46.270Z,23.15
2023-03-07T17:13:16.995Z,29.05
2023-03-07T17:15:44.526Z,26.15
2023-03-07T17:18:12.104Z,28.23
2023-03-07T17:20:38.722Z,31.30
2023-03-07T17:23:05.187Z,24.17
2023-03-07T17:25:31.666Z,23.13
2023-03-07T17:28:00.641Z,23.52
2023-03-07T17:30:29.715Z,14.43
2023-03-07T17:32:56.709Z,20.02
2023-03-07T17:35:23.546Z,16.70
2023-03-07T17:37:52.973Z,11.52
2023-03-07T17:40:20.474Z,21.77
2023-03-07T17:42:49.869Z,11.50
2023-03-07T17:45:16.625Z,16.02
2023-03-07T17:47:43.129Z,12.15
2023-03-07T17:50:11.162Z,14.48
2023-03-07T17:52:37.685Z,20.80
2023-03-07T17:55:09.516Z,22.42
2023-03-07T17:57:36.522Z,22.70
2023-03-07T18:00:06.891Z,16.67
2023-03-07T18:02:35.250Z,18.43
2023-03-07T18:05:01.748Z,29.00
2023-03-07T18:07:28.555Z,16.50
2023-03-07T18:10:07.095Z,14.43
2023-03-07T18:12:34.524Z,14.82
2023-03-07T18:15:01.081Z,16.60
2023-03-07T18:17:33.296Z,19.70
2023-03-07T18:20:08.136Z,10.60
2023-03-07T18:22:34.680Z,24.58
2023-03-07T18:25:01.112Z,16.25
2023-03-07T18:27:27.550Z,20.42
2023-03-07T18:29:54.080Z,21.98
2023-03-07T18:32:20.641Z,16.30
2023-03-07T18:34:47.239Z,17.25
2023-03-07T18:37:15.547Z,18.48
2023-03-07T18:39:42.009Z,24.60
2023-03-07T18:42:08.714Z,24.70
2023-03-07T18:44:35.263Z,24.60
2023-03-07T18:47:01.792Z,27.33
2023-03-07T18:49:28.256Z,23.88
2023-03-07T18:51:54.912Z,30.77
2023-03-07T18:54:21.465Z,35.53
2023-03-07T18:56:48.228Z,38.63
2023-03-07T18:59:15.766Z,43.90
2023-03-07T19:01:42.278Z,37.50
2023-03-07T19:04:09.124Z,49.28
2023-03-07T19:06:40.634Z,51.88
2023-03-07T19:09:19.372Z,53.92
2023-03-07T19:11:46.257Z,56.80
2023-03-07T19:14:13.055Z,51.92
2023-03-07T19:16:39.744Z,51.95
2023-03-07T19:19:06.260Z,33.03
2023-03-07T19:21:32.956Z,42.78
2023-03-07T19:24:03.355Z,33.05
2023-03-07T19:26:30.053Z,29.17
2023-03-07T19:28:57.067Z,29.48
2023-03-07T19:31:26.341Z,37.05
2023-03-07T19:33:53.492Z,28.13
2023-03-07T19:36:27.299Z,35.83
2023-03-07T19:38:56.270Z,42.30
2023-03-07T19:41:24.972Z,38.90
2023-03-07T19:43:52.006Z,37.17
2023-03-07T19:46:20.128Z,32.50
2023-03-07T19:48:46.737Z,31.50
2023-03-07T19:51:15.665Z,32.60
2023-03-07T19:53:43.699Z,29.75
2023-03-07T19:56:13.771Z,34.35
2023-03-07T19:58:40.275Z,41.55
2023-03-07T20:01:12.186Z,34.40
2023-03-07T20:03:39.185Z,33.55
2023-03-07T20:06:07.878Z,38.35
2023-03-07T20:08:34.857Z,30.30
2023-03-07T20:11:13.354Z,34.97
2023-03-07T20:13:41.311Z,36.05
2023-03-07T20:16:10.324Z,35.53
2023-03-07T20:18:37.111Z,40.03
2023-03-07T20:21:09.282Z,31.02
2023-03-07T20:23:36.084Z,29.58
2023-03-07T20:26:04.825Z,37.88
2023-03-07T20:28:31.901Z,32.08
2023-03-07T20:30:58.957Z,37.60
2023-03-07T20:33:25.502Z,32.15
2023-03-07T20:36:04.965Z,33.58
2023-03-07T20:38:33.283Z,33.10
2023-03-07T20:41:05.342Z,34.33
2023-03-07T20:43:33.118Z,37.47
2023-03-07T20:46:12.988Z,37.10
2023-03-07T20:48:40.867Z,31.48
2023-03-07T20:51:15.946Z,35.40
2023-03-07T20:53:42.834Z,40.80
2023-03-07T20:56:09.369Z,35.85
2023-03-07T20:58:36.028Z,29.63
2023-03-07T21:01:02.934Z,31.45
2023-03-07T21:03:29.750Z,35.47
2023-03-07T21:05:58.593Z,41.38
2023-03-07T21:08:25.373Z,37.63
2023-03-07T21:11:02.083Z,42.28
2023-03-07T21:13:28.842Z,30.38
2023-03-07T21:16:00.507Z,37.05
2023-03-07T21:18:27.449Z,30.63
2023-03-07T21:20:54.011Z,29.10
2023-03-07T21:23:20.438Z,30.17
2023-03-07T21:25:47.204Z,30.90
2023-03-07T21:28:13.892Z,35.10
2023-03-07T21:30:40.480Z,28.88
2023-03-07T21:33:07.128Z,31.13
2023-03-07T21:35:40.298Z,31.73
2023-03-07T21:38:07.262Z,31.77
2023-03-07T21:40:33.791Z,34.03
2023-03-07T21:43:00.266Z,35.15
2023-03-07T21:45:26.781Z,32.88
2023-03-07T21:47:54.326Z,37.20
2023-03-07T21:50:20.985Z,41.08
2023-03-07T21:52:47.577Z,40.63
2023-03-07T21:55:14.106Z,33.10
2023-03-07T21:57:40.566Z,30.50
2023-03-07T22:00:08.429Z,38.78
2023-03-07T22:02:37.673Z,32.78
2023-03-07T22:05:04.932Z,33.97
2023-03-07T22:07:31.673Z,34.50
2023-03-07T22:09:58.265Z,33.47
2023-03-07T22:12:24.686Z,32.78
2023-03-07T22:14:51.297Z,35.30
2023-03-07T22:17:17.741Z,29.20
2023-03-07T22:19:44.192Z,39.78
2023-03-07T22:22:10.658Z,37.38
2023-03-07T22:24:37.243Z,35.22
2023-03-07T22:27:03.681Z,38.40
2023-03-07T22:29:30.097Z,37.67
2023-03-07T22:31:56.830Z,34.30
2023-03-07T22:34:23.296Z,40.72
2023-03-07T22:36:55.660Z,35.67
2023-03-07T22:39:22.160Z,33.30
2023-03-07T22:41:48.797Z,40.10
2023-03-07T22:44:18.293Z,46.40
2023-03-07T22:46:49.576Z,42.60
2023-03-07T22:49:16.284Z,34.63
2023-03-07T22:51:42.844Z,33.25
2023-03-07T22:54:09.292Z,31.65
2023-03-07T22:56:36.239Z,29.20
2023-03-07T22:59:05.217Z,31.60
2023-03-07T23:01:32.390Z,36.30
2023-03-07T23:04:00.237Z,34.35
2023-03-07T23:06:29.458Z,30.48
2023-03-07T23:08:58.355Z,33.95
2023-03-07T23:11:25.332Z,29.63
2023-03-07T23:13:52.877Z,37.28
2023-03-07T23:16:22.267Z,32.33
2023-03-07T23:18:50.829Z,30.15
2023-03-07T23:21:19.591Z,36.03
2023-03-07T23:23:46.871Z,31.45
2023-03-07T23:26:27.819Z,28.08
2023-03-07T23:28:55.013Z,35.05
2023-03-07T23:31:27.258Z,32.45
2023-03-07T23:33:58.578Z,28.55
2023-03-07T23:36:26.746Z,33.90
2023-03-07T23:38:54.025Z,39.63
2023-03-07T23:41:21.462Z,35.70
2023-03-07T23:43:59.071Z,32.40
2023-03-07T23:46:26.268Z,26.58
2023-03-07T23:48:52.982Z,26.45
2023-03-07T23:51:20.782Z,32.92
2023-03-07T23:53:47.457Z,30.27
2023-03-07T23:56:14.574Z,27.10
2023-03-07T23:58:42.153Z,32.03
